createdAt,value
2019-06-26T00:00:36.410Z,79.74
2019-06-26T00:01:35.564Z,79.38
2019-06-26T00:02:36.384Z,78.78
2019-06-26T00:03:35.052Z,78.48
2019-06-26T00:04:35.926Z,79.28
2019-06-26T00:05:34.606Z,79.68
2019-06-26T00:06:35.405Z,78.88
2019-06-26T00:07:36.266Z,79.48
2019-06-26T00:08:35.037Z,79.28
2019-06-26T00:09:35.786Z,79.17
2019-06-26T00:10:36.679Z,79.17
2019-06-26T00:11:35.405Z,79.58
2019-06-26T00:12:36.268Z,79.08
2019-06-26T00:13:34.998Z,79.48
2019-06-26T00:14:38.769Z,80.08
2019-06-26T00:15:34.576Z,79.32
2019-06-26T00:16:35.699Z,79.72
2019-06-26T00:17:36.568Z,80.08
2019-06-26T00:18:35.402Z,80.11
2019-06-26T00:19:36.291Z,80.62
2019-06-26T00:20:34.999Z,80.11
2019-06-26T00:21:35.919Z,80.41
2019-06-26T00:22:36.783Z,79.32
2019-06-26T00:23:35.494Z,79.61
2019-06-26T00:24:36.370Z,79.72
2019-06-26T00:25:35.070Z,79.52
2019-06-26T00:26:35.957Z,80.11
2019-06-26T00:27:34.703Z,80.32
2019-06-26T00:28:34.521Z,80.32
2019-06-26T00:29:35.362Z,80.11
2019-06-26T00:30:34.062Z,80.82
2019-06-26T00:31:35.114Z,81.01
2019-06-26T00:32:35.994Z,81.01
2019-06-26T00:33:34.821Z,81.01
2019-06-26T00:34:35.683Z,81.01
2019-06-26T00:35:34.408Z,81.35
2019-06-26T00:36:35.371Z,81.56
2019-06-26T00:37:36.279Z,81.65
2019-06-26T00:38:35.035Z,82.15
2019-06-26T00:39:35.890Z,81.85
2019-06-26T00:40:34.643Z,81.85
2019-06-26T00:41:35.494Z,81.75
2019-06-26T00:42:34.214Z,81.85
2019-06-26T00:43:42.253Z,81.35
2019-06-26T00:44:33.836Z,82.85
2019-06-26T00:45:34.715Z,82.45
2019-06-26T00:46:35.600Z,82.19
2019-06-26T00:47:34.317Z,82.29
2019-06-26T00:48:35.195Z,82.59
2019-06-26T00:49:33.888Z,82.19
2019-06-26T00:50:34.790Z,83.29
2019-06-26T00:51:35.674Z,82.89
2019-06-26T00:52:34.437Z,82.19
2019-06-26T00:53:35.337Z,82.79
2019-06-26T00:54:34.037Z,82.79
2019-06-26T00:55:34.975Z,82.49
2019-06-26T00:56:35.777Z,82.29
2019-06-26T00:57:34.484Z,82.69
2019-06-26T00:58:35.314Z,82.09
2019-06-26T00:59:34.050Z,83.49
2019-06-26T01:00:34.906Z,83.29
2019-06-26T01:01:35.750Z,82.89
2019-06-26T01:02:34.482Z,83.49
2019-06-26T01:03:35.437Z,82.79
2019-06-26T01:04:34.009Z,82.99
2019-06-26T01:05:34.927Z,83.19
2019-06-26T01:06:35.740Z,82.39
2019-06-26T01:07:34.440Z,83.19
2019-06-26T01:08:35.278Z,83.29
2019-06-26T01:09:36.151Z,83.13
2019-06-26T01:10:34.830Z,83.23
2019-06-26T01:11:35.702Z,83.13
2019-06-26T01:12:34.352Z,82.23
2019-06-26T01:13:35.361Z,82.73
2019-06-26T01:14:34.102Z,82.93
2019-06-26T01:15:35.054Z,83.13
2019-06-26T01:16:36.006Z,82.93
2019-06-26T01:17:34.751Z,83.13
2019-06-26T01:18:35.627Z,83.13
2019-06-26T01:19:36.423Z,82.33
2019-06-26T01:20:35.110Z,83.53
2019-06-26T01:21:36.045Z,83.23
2019-06-26T01:22:34.932Z,83.33
2019-06-26T01:23:35.807Z,83.63
2019-06-26T01:24:34.486Z,83.03
2019-06-26T01:25:35.335Z,83.53
2019-06-26T01:26:34.014Z,83.33
2019-06-26T01:27:34.934Z,83.73
2019-06-26T01:28:33.659Z,83.93
2019-06-26T01:29:34.626Z,83.83
2019-06-26T01:30:35.491Z,83.87
2019-06-26T01:31:34.250Z,83.97
2019-06-26T01:32:35.167Z,83.57
2019-06-26T01:33:33.961Z,84.17
2019-06-26T01:34:34.857Z,84.67
2019-06-26T01:35:35.754Z,84.37
2019-06-26T01:36:34.516Z,84.77
2019-06-26T01:37:35.447Z,84.97
2019-06-26T01:38:34.118Z,84.87
2019-06-26T01:39:35.000Z,84.27
2019-06-26T01:40:35.899Z,84.97
2019-06-26T01:41:34.640Z,84.47
2019-06-26T01:42:36.358Z,85.17
2019-06-26T01:43:35.093Z,85.27
2019-06-26T01:44:35.972Z,85.37
2019-06-26T01:45:34.713Z,85.37
2019-06-26T01:46:35.591Z,85.68
2019-06-26T01:47:34.309Z,85.37
2019-06-26T01:48:35.191Z,85.37
2019-06-26T01:49:36.094Z,85.37
2019-06-26T01:50:34.856Z,85.68
2019-06-26T01:51:35.737Z,85.77
2019-06-26T01:52:34.480Z,85.77
2019-06-26T01:53:35.361Z,85.27
2019-06-26T01:54:35.261Z,85.17
2019-06-26T01:55:36.127Z,84.77
2019-06-26T01:56:34.916Z,84.07
2019-06-26T01:57:33.613Z,84.27
2019-06-26T01:58:34.481Z,84.97
2019-06-26T01:59:35.394Z,85.61
2019-06-26T02:00:34.146Z,84.21
2019-06-26T02:01:35.055Z,84.41
2019-06-26T02:02:33.814Z,84.61
2019-06-26T02:03:34.704Z,85.21
2019-06-26T02:04:34.590Z,84.41
2019-06-26T02:05:35.583Z,84.41
2019-06-26T02:06:34.295Z,84.61
2019-06-26T02:07:35.179Z,85.61
2019-06-26T02:08:36.088Z,84.61
2019-06-26T02:09:34.806Z,84.61
2019-06-26T02:10:35.726Z,84.41
2019-06-26T02:11:34.475Z,85.01
2019-06-26T02:12:35.435Z,84.71
2019-06-26T02:13:34.122Z,84.91
2019-06-26T02:14:34.994Z,85.61
2019-06-26T02:15:33.778Z,85.51
2019-06-26T02:16:34.708Z,85.01
2019-06-26T02:17:35.610Z,85.41
2019-06-26T02:18:34.373Z,85.82
2019-06-26T02:19:35.289Z,85.51
2019-06-26T02:20:33.998Z,85.11
2019-06-26T02:21:34.960Z,84.61
2019-06-26T02:22:35.830Z,85.21
2019-06-26T02:23:34.586Z,85.96
2019-06-26T02:24:35.449Z,85.46
2019-06-26T02:25:34.218Z,85.35
2019-06-26T02:26:35.122Z,85.96
2019-06-26T02:27:36.058Z,85.85
2019-06-26T02:28:34.792Z,86.16
2019-06-26T02:29:34.679Z,85.66
2019-06-26T02:30:35.590Z,85.75
2019-06-26T02:31:34.282Z,85.75
2019-06-26T02:32:35.143Z,85.96
2019-06-26T02:33:33.903Z,86.25
2019-06-26T02:34:34.760Z,86.05
2019-06-26T02:35:33.508Z,85.75
2019-06-26T02:36:34.416Z,85.96
2019-06-26T02:37:35.442Z,86.85
2019-06-26T02:38:34.171Z,86.66
2019-06-26T02:39:35.058Z,86.25
2019-06-26T02:40:33.766Z,86.05
2019-06-26T02:41:34.675Z,86.96
2019-06-26T02:42:35.586Z,86.55
2019-06-26T02:43:34.374Z,87.46
2019-06-26T02:44:52.415Z,87.36
2019-06-26T02:45:34.028Z,86.69
2019-06-26T02:46:34.915Z,87.00
2019-06-26T02:47:35.836Z,85.99
2019-06-26T02:48:34.555Z,86.60
2019-06-26T02:49:35.434Z,87.00
2019-06-26T02:50:34.166Z,85.89
2019-06-26T02:51:35.063Z,86.60
2019-06-26T02:52:36.016Z,86.60
2019-06-26T02:53:34.999Z,88.20
2019-06-26T02:54:35.838Z,87.00
2019-06-26T02:55:34.576Z,88.80
2019-06-26T02:56:35.476Z,88.50
2019-06-26T02:57:34.171Z,87.50
2019-06-26T02:58:35.159Z,87.40
2019-06-26T02:59:33.887Z,88.70
2019-06-26T03:00:35.395Z,88.20
2019-06-26T03:01:34.097Z,87.40
2019-06-26T03:02:34.987Z,88.20
2019-06-26T03:03:35.974Z,87.40
2019-06-26T03:04:34.632Z,87.20
2019-06-26T03:05:35.549Z,87.40
2019-06-26T03:06:34.290Z,87.80
2019-06-26T03:07:35.168Z,87.40
2019-06-26T03:08:36.099Z,87.00
2019-06-26T03:09:34.804Z,87.10
2019-06-26T03:10:35.683Z,88.40
2019-06-26T03:11:33.374Z,88.30
2019-06-26T03:12:34.331Z,86.80
2019-06-26T03:13:35.190Z,88.20
2019-06-26T03:14:36.135Z,88.50
2019-06-26T03:15:34.876Z,87.60
2019-06-26T03:16:35.772Z,86.80
2019-06-26T03:17:34.501Z,87.50
2019-06-26T03:18:35.404Z,87.30
2019-06-26T03:19:35.252Z,88.00
2019-06-26T03:20:36.180Z,87.30
2019-06-26T03:21:34.943Z,87.40
2019-06-26T03:22:33.836Z,87.50
2019-06-26T03:23:34.743Z,88.10
2019-06-26T03:24:35.615Z,87.60
2019-06-26T03:25:34.332Z,88.00
2019-06-26T03:26:35.203Z,87.60
2019-06-26T03:27:34.024Z,87.90
2019-06-26T03:28:34.933Z,88.20
2019-06-26T03:29:35.823Z,87.60
2019-06-26T03:30:34.578Z,87.50
2019-06-26T03:31:35.528Z,87.90
2019-06-26T03:32:34.255Z,87.50
2019-06-26T03:33:35.213Z,87.50
2019-06-26T03:34:36.104Z,86.80
2019-06-26T03:35:34.874Z,87.30
2019-06-26T03:36:35.844Z,87.00
2019-06-26T03:37:34.566Z,87.80
2019-06-26T03:38:34.465Z,88.10
2019-06-26T03:39:35.360Z,87.50
2019-06-26T03:40:34.117Z,88.20
2019-06-26T03:41:35.126Z,88.20
2019-06-26T03:42:36.066Z,87.50
2019-06-26T03:43:35.656Z,87.80
2019-06-26T03:44:35.703Z,87.60
2019-06-26T03:45:34.438Z,87.50
2019-06-26T03:46:35.340Z,87.90
2019-06-26T03:47:36.288Z,87.70
2019-06-26T03:48:35.009Z,87.70
2019-06-26T03:49:35.934Z,87.60
2019-06-26T03:50:34.697Z,87.50
2019-06-26T03:51:35.639Z,87.30
2019-06-26T03:52:34.400Z,87.80
2019-06-26T03:53:35.311Z,87.10
2019-06-26T03:54:34.041Z,87.80
2019-06-26T03:55:34.959Z,86.96
2019-06-26T03:56:33.683Z,87.46
2019-06-26T03:57:35.442Z,86.76
2019-06-26T03:58:35.535Z,86.66
2019-06-26T03:59:34.731Z,87.26
2019-06-26T04:00:35.633Z,87.05
2019-06-26T04:01:34.311Z,86.96
2019-06-26T04:02:35.193Z,86.96
2019-06-26T04:03:36.103Z,86.76
2019-06-26T04:04:34.804Z,87.26
2019-06-26T04:05:35.814Z,86.76
2019-06-26T04:06:34.464Z,86.85
2019-06-26T04:07:35.312Z,86.35
2019-06-26T04:08:34.024Z,86.05
2019-06-26T04:09:34.912Z,85.31
2019-06-26T04:10:32.586Z,86.32
2019-06-26T04:11:35.627Z,85.41
2019-06-26T04:12:34.345Z,85.61
2019-06-26T04:13:35.259Z,86.61
2019-06-26T04:14:33.944Z,85.51
2019-06-26T04:15:41.853Z,85.61
2019-06-26T04:16:35.675Z,85.21
2019-06-26T04:17:34.401Z,85.41
2019-06-26T04:18:35.274Z,85.61
2019-06-26T04:19:34.007Z,85.21
2019-06-26T04:20:34.894Z,85.37
2019-06-26T04:21:35.825Z,85.07
2019-06-26T04:22:34.495Z,85.37
2019-06-26T04:23:35.356Z,85.07
2019-06-26T04:24:34.066Z,84.87
2019-06-26T04:25:33.905Z,84.77
2019-06-26T04:26:34.796Z,84.77
2019-06-26T04:27:34.636Z,84.33
2019-06-26T04:28:35.507Z,84.63
2019-06-26T04:29:34.196Z,84.33
2019-06-26T04:30:35.060Z,83.93
2019-06-26T04:31:35.937Z,84.23
2019-06-26T04:32:34.597Z,83.83
2019-06-26T04:33:35.459Z,83.63
2019-06-26T04:34:34.138Z,83.53
2019-06-26T04:35:34.995Z,83.39
2019-06-26T04:36:35.866Z,83.39
2019-06-26T04:37:34.579Z,83.59
2019-06-26T04:38:35.451Z,83.69
2019-06-26T04:39:36.329Z,82.89
2019-06-26T04:40:35.014Z,83.19
2019-06-26T04:41:35.883Z,82.75
2019-06-26T04:42:34.551Z,81.95
2019-06-26T04:43:35.449Z,82.85
2019-06-26T04:44:36.291Z,83.05
2019-06-26T04:45:35.021Z,82.35
2019-06-26T04:46:35.861Z,82.61
2019-06-26T04:47:34.553Z,81.92
2019-06-26T04:48:35.422Z,81.71
2019-06-26T04:49:36.270Z,81.92
2019-06-26T04:50:34.973Z,81.92
2019-06-26T04:51:35.835Z,81.87
2019-06-26T04:52:34.744Z,81.67
2019-06-26T04:53:35.403Z,81.37
2019-06-26T04:54:36.311Z,80.98
2019-06-26T04:55:35.024Z,81.34
2019-06-26T04:56:35.883Z,80.64
2019-06-26T04:57:34.574Z,80.54
2019-06-26T04:58:35.426Z,80.64
2019-06-26T04:59:34.594Z,80.00
2019-06-26T05:00:35.485Z,79.80
2019-06-26T05:01:36.336Z,80.10
2019-06-26T05:02:35.024Z,79.90
2019-06-26T05:03:33.741Z,79.70
2019-06-26T05:04:34.585Z,79.50
2019-06-26T05:05:39.480Z,79.46
2019-06-26T05:06:34.154Z,79.16
2019-06-26T05:07:35.237Z,78.97
2019-06-26T05:08:33.738Z,78.77
2019-06-26T05:09:34.571Z,78.43
2019-06-26T05:10:35.767Z,78.49
2019-06-26T05:11:34.472Z,76.23
2019-06-26T05:12:35.346Z,73.93
2019-06-26T05:13:34.037Z,72.86
2019-06-26T05:14:35.329Z,70.72
2019-06-26T05:15:34.026Z,68.80
2019-06-26T05:16:34.887Z,67.84
2019-06-26T05:17:35.759Z,66.52
2019-06-26T05:18:34.418Z,65.96
2019-06-26T05:19:35.294Z,65.04
2019-06-26T05:20:35.150Z,65.30
2019-06-26T05:21:36.031Z,63.89
2019-06-26T05:22:34.739Z,62.57
2019-06-26T05:23:35.592Z,62.94
2019-06-26T05:24:34.310Z,61.72
2019-06-26T05:25:35.149Z,61.30
2019-06-26T05:26:33.819Z,61.50
2019-06-26T05:27:34.849Z,59.40
2019-06-26T05:28:33.522Z,60.26
2019-06-26T05:29:34.362Z,59.96
2019-06-26T05:30:35.212Z,58.85
2019-06-26T05:31:33.871Z,58.04
2019-06-26T05:32:34.741Z,57.64
2019-06-26T05:33:35.571Z,58.89
2019-06-26T05:34:34.586Z,56.99
2019-06-26T05:35:35.534Z,57.26
2019-06-26T05:36:34.078Z,55.99
2019-06-26T05:37:34.896Z,55.60
2019-06-26T05:38:35.765Z,55.96
2019-06-26T05:39:34.437Z,55.15
2019-06-26T05:40:35.297Z,54.75
2019-06-26T05:41:33.941Z,54.56
2019-06-26T05:42:34.815Z,54.33
2019-06-26T05:43:35.644Z,54.44
2019-06-26T05:44:34.334Z,54.31
2019-06-26T05:45:35.155Z,53.43
2019-06-26T05:46:33.878Z,52.64
2019-06-26T05:47:34.677Z,53.89
2019-06-26T05:48:35.475Z,52.81
2019-06-26T05:49:34.115Z,53.20
2019-06-26T05:50:34.936Z,52.69
2019-06-26T05:51:33.576Z,52.89
2019-06-26T05:52:34.394Z,52.76
2019-06-26T05:53:35.190Z,52.37
2019-06-26T05:54:33.857Z,51.76
2019-06-26T05:55:34.637Z,50.46
2019-06-26T05:56:33.371Z,50.46
2019-06-26T05:57:32.029Z,50.85
2019-06-26T05:58:32.808Z,51.03
2019-06-26T05:59:33.721Z,51.32
2019-06-26T06:00:32.259Z,51.32
2019-06-26T06:01:33.030Z,51.03
2019-06-26T06:02:31.682Z,50.42
2019-06-26T06:03:32.431Z,50.61
2019-06-26T06:04:33.201Z,50.81
2019-06-26T06:05:31.810Z,50.10
2019-06-26T06:06:41.780Z,49.90
2019-06-26T06:07:31.222Z,49.78
2019-06-26T06:08:32.062Z,50.36
2019-06-26T06:09:32.942Z,49.39
2019-06-26T06:10:31.572Z,49.66
2019-06-26T06:11:32.344Z,49.56
2019-06-26T06:12:30.923Z,48.97
2019-06-26T06:13:31.695Z,48.66
2019-06-26T06:14:32.487Z,48.68
2019-06-26T06:15:31.067Z,48.75
2019-06-26T06:16:46.398Z,48.56
2019-06-26T06:17:30.429Z,48.63
2019-06-26T06:18:32.221Z,47.75
2019-06-26T06:19:30.981Z,48.44
2019-06-26T06:20:31.815Z,47.46
2019-06-26T06:21:30.450Z,47.63
2019-06-26T06:22:31.189Z,47.63
2019-06-26T06:23:31.922Z,47.53
2019-06-26T06:24:30.516Z,47.53
2019-06-26T06:25:31.291Z,47.61
2019-06-26T06:26:29.905Z,48.10
2019-06-26T06:27:30.706Z,46.61
2019-06-26T06:28:31.483Z,46.73
2019-06-26T06:29:30.801Z,47.13
2019-06-26T06:30:30.929Z,46.34
2019-06-26T06:31:29.629Z,45.86
2019-06-26T06:32:30.414Z,45.84
2019-06-26T06:33:29.093Z,46.20
2019-06-26T06:34:29.860Z,45.52
2019-06-26T06:35:28.487Z,45.72
2019-06-26T06:36:29.237Z,45.14
2019-06-26T06:37:30.053Z,45.72
2019-06-26T06:38:28.784Z,45.04
2019-06-26T06:39:29.574Z,44.82
2019-06-26T06:40:28.185Z,46.08
2019-06-26T06:41:28.993Z,45.18
2019-06-26T06:42:29.762Z,44.19
2019-06-26T06:43:28.454Z,43.41
2019-06-26T06:44:29.243Z,43.49
2019-06-26T06:45:27.865Z,43.68
2019-06-26T06:46:28.683Z,43.40
2019-06-26T06:47:27.256Z,43.68
2019-06-26T06:48:28.067Z,43.49
2019-06-26T06:49:26.801Z,42.81
2019-06-26T06:50:27.664Z,42.71
2019-06-26T06:51:26.296Z,42.91
2019-06-26T06:52:27.056Z,42.60
2019-06-26T06:53:28.154Z,42.50
2019-06-26T06:54:26.721Z,42.86
2019-06-26T06:55:27.499Z,42.09
2019-06-26T06:56:26.136Z,42.55
2019-06-26T06:57:26.911Z,41.78
2019-06-26T06:58:25.507Z,41.68
2019-06-26T06:59:26.361Z,42.05
2019-06-26T07:00:24.974Z,41.27
2019-06-26T07:01:25.780Z,40.86
2019-06-26T07:02:26.624Z,40.89
2019-06-26T07:03:25.232Z,41.47
2019-06-26T07:04:25.990Z,41.00
2019-06-26T07:05:24.590Z,41.30
2019-06-26T07:06:25.500Z,41.27
2019-06-26T07:07:26.276Z,41.66
2019-06-26T07:08:24.890Z,41.35
2019-06-26T07:09:25.695Z,41.56
2019-06-26T07:10:24.262Z,40.28
2019-06-26T07:11:25.052Z,41.35
2019-06-26T07:12:23.684Z,41.25
2019-06-26T07:13:24.419Z,40.65
2019-06-26T07:14:23.082Z,40.56
2019-06-26T07:15:23.974Z,40.17
2019-06-26T07:16:22.586Z,41.24
2019-06-26T07:17:23.329Z,40.94
2019-06-26T07:18:24.098Z,40.53
2019-06-26T07:19:22.823Z,40.83
2019-06-26T07:20:23.586Z,40.25
2019-06-26T07:21:22.166Z,41.09
2019-06-26T07:22:23.025Z,39.94
2019-06-26T07:23:23.742Z,39.16
2019-06-26T07:24:22.355Z,39.28
2019-06-26T07:25:23.206Z,40.15
2019-06-26T07:26:21.877Z,40.44
2019-06-26T07:27:22.655Z,40.92
2019-06-26T07:28:21.281Z,40.61
2019-06-26T07:29:22.043Z,39.64
2019-06-26T07:30:20.684Z,39.74
2019-06-26T07:31:21.368Z,39.43
2019-06-26T07:32:22.132Z,39.53
2019-06-26T07:33:20.693Z,39.82
2019-06-26T07:34:21.572Z,39.82
2019-06-26T07:35:20.130Z,39.06
2019-06-26T07:36:20.949Z,39.18
2019-06-26T07:37:21.923Z,39.86
2019-06-26T07:38:21.471Z,39.95
2019-06-26T07:39:20.061Z,39.86
2019-06-26T07:40:20.812Z,39.37
2019-06-26T07:41:19.335Z,39.47
2019-06-26T07:42:20.168Z,40.92
2019-06-26T07:43:18.845Z,39.67
2019-06-26T07:44:19.586Z,40.25
2019-06-26T07:45:18.163Z,39.37
2019-06-26T07:46:18.974Z,39.45
2019-06-26T07:47:24.943Z,39.34
2019-06-26T07:48:18.416Z,40.30
2019-06-26T07:49:19.174Z,39.51
2019-06-26T07:50:17.735Z,39.78
2019-06-26T07:51:18.536Z,37.75
2019-06-26T07:52:17.137Z,37.46
2019-06-26T07:53:17.858Z,37.65
2019-06-26T07:54:18.565Z,38.91
2019-06-26T07:55:17.188Z,37.06
2019-06-26T07:56:17.887Z,37.54
2019-06-26T07:57:16.579Z,38.29
2019-06-26T07:58:16.366Z,37.15
2019-06-26T07:59:17.112Z,37.73
2019-06-26T08:00:16.349Z,38.02
2019-06-26T08:01:16.999Z,37.65
2019-06-26T08:02:15.581Z,38.18
2019-06-26T08:03:15.338Z,38.46
2019-06-26T08:04:16.048Z,38.83
2019-06-26T08:05:16.861Z,38.56
2019-06-26T08:06:15.497Z,38.93
2019-06-26T08:07:16.319Z,38.54
2019-06-26T08:08:15.040Z,39.11
2019-06-26T08:09:15.683Z,38.51
2019-06-26T08:10:16.521Z,38.02
2019-06-26T08:11:15.061Z,37.45
2019-06-26T08:12:13.610Z,37.46
2019-06-26T08:13:14.342Z,39.29
2019-06-26T08:14:15.180Z,37.95
2019-06-26T08:15:13.698Z,39.11
2019-06-26T08:16:14.454Z,38.70
2019-06-26T08:17:12.970Z,38.31
2019-06-26T08:18:13.674Z,36.69
2019-06-26T08:19:14.403Z,36.69
2019-06-26T08:20:12.969Z,36.50
2019-06-26T08:21:13.794Z,37.37
2019-06-26T08:22:12.357Z,39.80
2019-06-26T08:23:13.159Z,38.74
2019-06-26T08:24:13.834Z,38.35
2019-06-26T08:25:12.407Z,37.67
2019-06-26T08:26:13.130Z,37.10
2019-06-26T08:27:13.220Z,37.46
2019-06-26T08:28:12.397Z,37.46
2019-06-26T08:29:13.131Z,37.45
2019-06-26T08:30:11.769Z,38.31
2019-06-26T08:31:12.540Z,37.15
2019-06-26T08:32:11.196Z,37.35
2019-06-26T08:33:11.938Z,38.49
2019-06-26T08:34:10.488Z,36.65
2019-06-26T08:35:11.200Z,36.36
2019-06-26T08:36:09.762Z,37.23
2019-06-26T08:37:10.481Z,36.67
2019-06-26T08:38:14.348Z,37.85
2019-06-26T08:39:09.756Z,36.69
2019-06-26T08:40:10.597Z,38.35
2019-06-26T08:41:09.364Z,37.77
2019-06-26T08:42:10.102Z,39.51
2019-06-26T08:43:10.811Z,38.91
2019-06-26T08:44:09.660Z,38.79
2019-06-26T08:45:10.430Z,39.47
2019-06-26T08:46:09.119Z,38.79
2019-06-26T08:47:10.141Z,36.46
2019-06-26T08:48:22.904Z,37.31
2019-06-26T08:49:24.454Z,35.94
2019-06-26T08:50:07.523Z,37.01
2019-06-26T08:51:08.214Z,36.23
2019-06-26T08:52:08.948Z,35.96
2019-06-26T08:53:08.102Z,36.35
2019-06-26T08:54:08.813Z,35.46
2019-06-26T08:55:07.989Z,35.48
2019-06-26T08:56:06.566Z,36.06
2019-06-26T08:57:07.257Z,36.15
2019-06-26T08:58:07.932Z,35.67
2019-06-26T08:59:06.458Z,35.61
2019-06-26T09:00:06.254Z,38.83
2019-06-26T09:01:07.545Z,38.58
2019-06-26T09:02:05.961Z,38.79
2019-06-26T09:03:08.314Z,39.28
2019-06-26T09:04:06.879Z,39.24
2019-06-26T09:05:05.471Z,40.50
2019-06-26T09:06:06.240Z,39.34
2019-06-26T09:07:04.761Z,41.06
2019-06-26T09:08:05.530Z,39.39
2019-06-26T09:09:04.065Z,38.58
2019-06-26T09:10:04.762Z,38.08
2019-06-26T09:11:05.462Z,38.54
2019-06-26T09:12:04.275Z,39.70
2019-06-26T09:13:05.066Z,37.46
2019-06-26T09:14:03.634Z,36.77
2019-06-26T09:15:04.431Z,35.92
2019-06-26T09:16:03.451Z,36.59
2019-06-26T09:17:03.680Z,37.46
2019-06-26T09:18:04.565Z,37.46
2019-06-26T09:19:03.103Z,38.04
2019-06-26T09:20:03.895Z,37.77
2019-06-26T09:21:02.442Z,38.14
2019-06-26T09:22:02.308Z,37.10
2019-06-26T09:23:03.249Z,37.50
2019-06-26T09:24:01.912Z,40.20
2019-06-26T09:25:19.843Z,38.56
2019-06-26T09:26:01.350Z,38.85
2019-06-26T09:27:02.094Z,38.74
2019-06-26T09:28:00.768Z,38.54
2019-06-26T09:29:01.459Z,37.00
2019-06-26T09:30:02.497Z,38.43
2019-06-26T09:31:01.028Z,37.65
2019-06-26T09:32:01.812Z,37.63
2019-06-26T09:33:00.323Z,38.53
2019-06-26T09:34:01.039Z,38.62
2019-06-26T09:35:02.191Z,37.58
2019-06-26T09:36:00.686Z,37.48
2019-06-26T09:36:59.261Z,37.58
2019-06-26T09:38:00.053Z,38.25
2019-06-26T09:39:00.884Z,38.64
2019-06-26T09:39:59.628Z,37.27
2019-06-26T09:41:00.370Z,38.16
2019-06-26T09:41:59.420Z,37.67
2019-06-26T09:43:00.092Z,38.64
2019-06-26T09:43:59.020Z,38.83
2019-06-26T09:44:59.908Z,38.46
2019-06-26T09:45:58.551Z,37.70
2019-06-26T09:46:59.314Z,37.79
2019-06-26T09:47:57.895Z,37.88
2019-06-26T09:48:58.876Z,38.85
2019-06-26T09:49:59.715Z,38.08
2019-06-26T09:50:58.286Z,38.78
2019-06-26T09:51:56.795Z,38.48
2019-06-26T09:52:57.655Z,39.55
2019-06-26T09:53:58.415Z,38.89
2019-06-26T09:54:57.428Z,40.73
2019-06-26T09:55:58.880Z,39.57
2019-06-26T09:56:57.281Z,40.05
2019-06-26T09:57:58.129Z,38.68
2019-06-26T09:58:56.831Z,38.97
2019-06-26T09:59:57.545Z,39.36
2019-06-26T10:00:56.202Z,38.56
2019-06-26T10:01:56.960Z,38.10
2019-06-26T10:02:54.520Z,38.60
2019-06-26T10:03:55.570Z,38.79
2019-06-26T10:04:56.280Z,38.02
2019-06-26T10:05:54.850Z,38.62
2019-06-26T10:06:55.585Z,40.56
2019-06-26T10:07:56.330Z,38.53
2019-06-26T10:08:55.022Z,38.45
2019-06-26T10:09:55.920Z,40.23
2019-06-26T10:10:54.363Z,40.23
2019-06-26T10:11:55.099Z,40.42
2019-06-26T10:12:54.011Z,41.31
2019-06-26T10:13:54.772Z,41.49
2019-06-26T10:14:53.324Z,41.78
2019-06-26T10:15:54.107Z,41.30
2019-06-26T10:16:54.932Z,39.55
2019-06-26T10:17:53.961Z,40.42
2019-06-26T10:19:08.857Z,41.30
2019-06-26T10:19:54.185Z,40.71
2019-06-26T10:20:54.684Z,40.31
2019-06-26T10:21:53.246Z,40.99
2019-06-26T10:22:54.061Z,40.40
2019-06-26T10:23:52.647Z,40.79
2019-06-26T10:24:53.357Z,41.93
2019-06-26T10:25:51.935Z,41.25
2019-06-26T10:26:52.725Z,40.96
2019-06-26T10:27:51.278Z,39.92
2019-06-26T10:28:52.229Z,41.17
2019-06-26T10:29:50.858Z,39.45
2019-06-26T10:30:51.797Z,41.78
2019-06-26T10:31:52.565Z,39.84
2019-06-26T10:32:51.880Z,41.61
2019-06-26T10:33:50.813Z,41.12
2019-06-26T10:34:51.832Z,39.11
2019-06-26T10:35:50.332Z,41.36
2019-06-26T10:36:51.072Z,41.28
2019-06-26T10:37:49.696Z,41.28
2019-06-26T10:38:50.680Z,43.61
2019-06-26T10:39:49.320Z,42.25
2019-06-26T10:40:50.129Z,42.74
2019-06-26T10:41:54.722Z,42.18
2019-06-26T10:42:50.045Z,42.35
2019-06-26T10:43:50.807Z,41.78
2019-06-26T10:44:49.437Z,43.71
2019-06-26T10:45:50.249Z,43.80
2019-06-26T10:46:48.831Z,41.38
2019-06-26T10:47:49.892Z,41.08
2019-06-26T10:48:48.597Z,42.44
2019-06-26T10:49:49.530Z,41.67
2019-06-26T10:50:53.430Z,41.08
2019-06-26T10:51:48.905Z,44.68
2019-06-26T10:52:48.898Z,41.57
2019-06-26T10:53:49.340Z,43.40
2019-06-26T10:54:48.331Z,41.16
2019-06-26T10:55:46.992Z,42.33
2019-06-26T10:56:47.722Z,40.48
2019-06-26T10:57:48.531Z,42.03
2019-06-26T10:58:47.144Z,39.70
2019-06-26T10:59:48.002Z,40.19
2019-06-26T11:00:48.815Z,39.32
2019-06-26T11:01:47.402Z,40.67
2019-06-26T11:02:46.074Z,38.44
2019-06-26T11:03:46.861Z,39.03
2019-06-26T11:04:47.666Z,39.90
2019-06-26T11:05:46.221Z,38.64
2019-06-26T11:06:47.015Z,38.95
2019-06-26T11:07:45.629Z,37.96
2019-06-26T11:08:46.481Z,38.83
2019-06-26T11:09:47.343Z,39.12
2019-06-26T11:10:45.903Z,39.24
2019-06-26T11:11:44.475Z,39.24
2019-06-26T11:12:48.814Z,41.08
2019-06-26T11:13:44.194Z,40.01
2019-06-26T11:14:45.046Z,41.57
2019-06-26T11:15:45.773Z,41.08
2019-06-26T11:16:44.358Z,41.08
2019-06-26T11:17:45.259Z,40.50
2019-06-26T11:18:45.937Z,37.86
2019-06-26T11:19:44.671Z,39.12
2019-06-26T11:20:45.354Z,40.19
2019-06-26T11:21:43.950Z,40.26
2019-06-26T11:22:44.809Z,40.17
2019-06-26T11:23:45.596Z,38.81
2019-06-26T11:24:44.299Z,37.35
2019-06-26T11:25:44.999Z,37.47
2019-06-26T11:26:42.590Z,37.08
2019-06-26T11:27:43.398Z,37.66
2019-06-26T11:28:44.280Z,38.73
2019-06-26T11:29:42.199Z,40.95
2019-06-26T11:30:43.937Z,38.79
2019-06-26T11:31:42.854Z,37.63
2019-06-26T11:32:43.697Z,37.05
2019-06-26T11:33:42.330Z,36.46
2019-06-26T11:34:43.034Z,37.82
2019-06-26T11:35:41.768Z,36.85
2019-06-26T11:36:42.552Z,37.05
2019-06-26T11:37:40.828Z,38.31
2019-06-26T11:38:42.136Z,36.36
2019-06-26T11:39:43.006Z,41.02
2019-06-26T11:40:41.723Z,39.36
2019-06-26T11:41:40.401Z,39.16
2019-06-26T11:42:40.163Z,38.39
2019-06-26T11:43:40.955Z,38.00
2019-06-26T11:44:41.818Z,35.77
2019-06-26T11:45:40.395Z,35.96
2019-06-26T11:46:41.194Z,37.13
2019-06-26T11:47:45.532Z,38.58
2019-06-26T11:48:40.608Z,37.21
2019-06-26T11:49:41.390Z,36.52
2019-06-26T11:50:40.018Z,37.49
2019-06-26T11:51:40.795Z,38.19
2019-06-26T11:52:41.521Z,40.50
2019-06-26T11:53:40.102Z,36.43
2019-06-26T11:54:40.906Z,35.56
2019-06-26T11:55:39.453Z,36.35
2019-06-26T11:56:40.743Z,35.98
2019-06-26T11:57:39.928Z,36.97
2019-06-26T11:58:38.540Z,37.43
2019-06-26T11:59:39.307Z,36.95
2019-06-26T12:00:41.712Z,36.46
2019-06-26T12:01:38.701Z,37.15
2019-06-26T12:02:39.381Z,37.63
2019-06-26T12:03:39.229Z,37.63
2019-06-26T12:04:37.852Z,37.24
2019-06-26T12:05:38.842Z,36.08
2019-06-26T12:06:37.644Z,35.88
2019-06-26T12:07:38.243Z,35.41
2019-06-26T12:08:37.085Z,37.76
2019-06-26T12:09:37.895Z,36.91
2019-06-26T12:10:38.606Z,37.47
2019-06-26T12:11:37.319Z,39.51
2019-06-26T12:12:38.614Z,36.99
2019-06-26T12:13:36.925Z,35.13
2019-06-26T12:14:36.676Z,36.10
2019-06-26T12:15:37.731Z,34.04
2019-06-26T12:16:36.363Z,34.43
2019-06-26T12:17:37.130Z,32.78
2019-06-26T12:18:37.856Z,33.46
2019-06-26T12:19:35.411Z,33.84
2019-06-26T12:20:36.206Z,33.75
2019-06-26T12:21:36.951Z,34.99
2019-06-26T12:22:35.596Z,34.31
2019-06-26T12:23:36.737Z,35.19
2019-06-26T12:24:35.797Z,34.22
2019-06-26T12:25:34.648Z,34.61
2019-06-26T12:26:35.507Z,33.92
2019-06-26T12:27:34.282Z,37.13
2019-06-26T12:28:37.308Z,34.51
2019-06-26T12:29:33.651Z,34.72
2019-06-26T12:30:34.430Z,35.01
2019-06-26T12:31:35.130Z,35.59
2019-06-26T12:32:41.837Z,35.59
2019-06-26T12:33:34.669Z,36.08
2019-06-26T12:34:33.271Z,35.01
2019-06-26T12:35:34.048Z,34.81
2019-06-26T12:36:32.615Z,34.43
2019-06-26T12:37:37.708Z,34.53
2019-06-26T12:38:34.081Z,33.07
2019-06-26T12:39:32.654Z,33.65
2019-06-26T12:40:33.534Z,35.30
2019-06-26T12:41:32.130Z,37.15
2019-06-26T12:42:32.881Z,35.59
2019-06-26T12:43:32.642Z,36.27
2019-06-26T12:44:33.375Z,36.27
2019-06-26T12:45:31.966Z,34.91
2019-06-26T12:46:33.057Z,35.49
2019-06-26T12:47:31.652Z,35.49
2019-06-26T12:48:32.383Z,34.14
2019-06-26T12:49:30.981Z,37.35
2019-06-26T12:50:35.747Z,35.21
2019-06-26T12:51:30.370Z,34.14